createdAt,value
2023-03-02T00:01:09.502Z,4.17
2023-03-02T00:03:39.005Z,4.14
2023-03-02T00:06:07.249Z,4.10
2023-03-02T00:08:35.626Z,4.06
2023-03-02T00:11:03.661Z,4.03
2023-03-02T00:13:32.419Z,3.99
2023-03-02T00:16:00.254Z,3.96
2023-03-02T00:18:28.078Z,3.94
2023-03-02T00:20:55.891Z,3.91
2023-03-02T00:23:23.732Z,3.86
2023-03-02T00:25:51.528Z,3.82
2023-03-02T00:28:20.634Z,3.77
2023-03-02T00:30:48.495Z,3.73
2023-03-02T00:33:16.255Z,3.69
2023-03-02T00:35:43.933Z,3.68
2023-03-02T00:38:14.681Z,3.68
2023-03-02T00:40:46.343Z,3.68
2023-03-02T00:43:14.174Z,3.69
2023-03-02T00:45:42.246Z,3.70
2023-03-02T00:48:10.028Z,3.68
2023-03-02T00:50:41.105Z,3.67
2023-03-02T00:53:11.994Z,3.65
2023-03-02T00:55:39.840Z,3.64
2023-03-02T00:58:07.683Z,3.62
2023-03-02T01:00:37.146Z,3.61
2023-03-02T01:03:05.263Z,3.59
2023-03-02T01:05:36.320Z,3.56
2023-03-02T01:08:04.233Z,3.54
2023-03-02T01:10:32.492Z,3.49
2023-03-02T01:13:00.378Z,3.46
2023-03-02T01:15:28.132Z,3.42
2023-03-02T01:17:55.916Z,3.37
2023-03-02T01:20:23.661Z,3.34
2023-03-02T01:22:51.578Z,3.32
2023-03-02T01:25:19.501Z,3.29
2023-03-02T01:27:47.328Z,3.26
2023-03-02T01:30:15.842Z,3.24
2023-03-02T01:32:43.643Z,3.22
2023-03-02T01:35:11.699Z,3.19
2023-03-02T01:37:39.439Z,3.15
2023-03-02T01:40:09.245Z,3.11
2023-03-02T01:42:38.788Z,3.05
2023-03-02T01:45:27.077Z,3.00
2023-03-02T01:47:54.935Z,2.96
2023-03-02T01:50:26.750Z,2.92
2023-03-02T01:52:55.312Z,2.86
2023-03-02T01:55:25.352Z,2.80
2023-03-02T01:57:54.855Z,2.71
2023-03-02T02:00:25.070Z,2.62
2023-03-02T02:02:54.000Z,2.52
2023-03-02T02:05:24.377Z,2.45
2023-03-02T02:07:52.367Z,2.36
2023-03-02T02:10:20.310Z,2.29
2023-03-02T02:12:47.998Z,2.22
2023-03-02T02:15:15.965Z,2.15
2023-03-02T02:17:43.686Z,2.09
2023-03-02T02:20:30.501Z,2.04
2023-03-02T02:23:01.396Z,1.99
2023-03-02T02:25:48.323Z,1.91
2023-03-02T02:28:19.673Z,1.84
2023-03-02T02:30:51.363Z,1.81
2023-03-02T02:33:22.299Z,1.79
2023-03-02T02:35:54.105Z,1.79
2023-03-02T02:38:22.804Z,1.77
2023-03-02T02:40:50.623Z,1.75
2023-03-02T02:43:19.994Z,1.76
2023-03-02T02:45:52.901Z,1.77
2023-03-02T02:48:23.885Z,1.78
2023-03-02T02:51:00.555Z,1.79
2023-03-02T02:53:40.558Z,1.81
2023-03-02T02:56:09.789Z,1.81
2023-03-02T02:58:40.383Z,1.82
2023-03-02T03:01:09.246Z,1.83
2023-03-02T03:03:39.319Z,1.84
2023-03-02T03:06:09.156Z,1.85
2023-03-02T03:08:46.150Z,1.86
2023-03-02T03:11:15.905Z,1.86
2023-03-02T03:13:44.484Z,1.85
2023-03-02T03:16:14.854Z,1.84
2023-03-02T03:18:43.649Z,1.84
2023-03-02T03:21:11.519Z,1.83
2023-03-02T03:23:39.503Z,1.83
2023-03-02T03:26:07.810Z,1.83
2023-03-02T03:28:35.948Z,1.84
2023-03-02T03:31:03.927Z,1.87
2023-03-02T03:33:31.835Z,1.89
2023-03-02T03:36:00.837Z,1.92
2023-03-02T03:38:30.356Z,1.95
2023-03-02T03:40:58.864Z,1.99
2023-03-02T03:43:27.032Z,2.05
2023-03-02T03:45:54.736Z,2.11
2023-03-02T03:48:22.529Z,2.15
2023-03-02T03:50:50.172Z,2.21
2023-03-02T03:53:17.978Z,2.24
2023-03-02T03:55:45.702Z,2.28
2023-03-02T03:58:13.622Z,2.33
2023-03-02T04:00:41.331Z,2.35
2023-03-02T04:03:09.199Z,2.38
2023-03-02T04:05:37.190Z,2.40
2023-03-02T04:08:05.036Z,2.42
2023-03-02T04:10:32.864Z,2.44
2023-03-02T04:13:00.820Z,2.46
2023-03-02T04:15:28.655Z,2.48
2023-03-02T04:17:56.500Z,2.49
2023-03-02T04:20:25.681Z,2.49
2023-03-02T04:22:54.294Z,2.51
2023-03-02T04:25:24.148Z,2.53
2023-03-02T04:27:52.807Z,2.55
2023-03-02T04:30:23.622Z,2.56
2023-03-02T04:32:51.462Z,2.58
2023-03-02T04:35:19.639Z,2.57
2023-03-02T04:37:48.190Z,2.57
2023-03-02T04:40:17.699Z,2.57
2023-03-02T04:42:45.511Z,2.57
2023-03-02T04:45:13.550Z,2.57
2023-03-02T04:47:41.593Z,2.57
2023-03-02T04:50:11.500Z,2.58
2023-03-02T04:52:39.653Z,2.59
2023-03-02T04:55:07.680Z,2.61
2023-03-02T04:57:35.465Z,2.61
2023-03-02T05:00:05.468Z,2.62
2023-03-02T05:02:34.103Z,2.62
2023-03-02T05:05:02.400Z,2.62
2023-03-02T05:07:30.206Z,2.63
2023-03-02T05:09:57.954Z,2.63
2023-03-02T05:12:25.635Z,2.63
2023-03-02T05:14:53.675Z,2.64
2023-03-02T05:17:21.414Z,2.64
2023-03-02T05:19:49.364Z,2.64
2023-03-02T05:22:17.133Z,2.64
2023-03-02T05:24:45.178Z,2.64
2023-03-02T05:27:12.870Z,2.64
2023-03-02T05:29:40.660Z,2.63
2023-03-02T05:32:10.450Z,2.63
2023-03-02T05:34:38.269Z,2.64
2023-03-02T05:37:05.974Z,2.66
2023-03-02T05:39:34.119Z,2.69
2023-03-02T05:42:01.858Z,2.70
2023-03-02T05:44:29.598Z,2.70
2023-03-02T05:46:57.666Z,2.70
2023-03-02T05:49:25.619Z,2.70
2023-03-02T05:51:53.358Z,2.69
2023-03-02T05:54:21.166Z,2.69
2023-03-02T05:56:50.343Z,2.70
2023-03-02T05:59:18.224Z,2.71
2023-03-02T06:01:46.074Z,2.73
2023-03-02T06:04:14.121Z,2.74
2023-03-02T06:06:41.949Z,2.76
2023-03-02T06:09:09.724Z,2.78
2023-03-02T06:11:37.824Z,2.79
2023-03-02T06:14:05.635Z,2.80
2023-03-02T06:16:34.577Z,2.80
2023-03-02T06:19:02.825Z,2.81
2023-03-02T06:21:30.592Z,2.81
2023-03-02T06:23:58.505Z,2.82
2023-03-02T06:26:26.265Z,2.83
2023-03-02T06:28:54.253Z,2.82
2023-03-02T06:31:22.296Z,2.82
2023-03-02T06:33:50.201Z,2.85
2023-03-02T06:36:18.285Z,2.86
2023-03-02T06:38:46.148Z,2.89
2023-03-02T06:41:13.859Z,2.90
2023-03-02T06:43:41.750Z,2.92
2023-03-02T06:46:09.516Z,2.92
2023-03-02T06:48:37.753Z,2.92
2023-03-02T06:51:06.223Z,2.92
2023-03-02T06:53:34.307Z,2.92
2023-03-02T06:56:02.046Z,2.91
2023-03-02T06:58:29.856Z,2.92
2023-03-02T07:00:57.649Z,2.94
2023-03-02T07:03:25.671Z,2.96
2023-03-02T07:05:53.651Z,2.96
2023-03-02T07:08:21.442Z,2.97
2023-03-02T07:10:49.172Z,2.98
2023-03-02T07:13:17.044Z,2.99
2023-03-02T07:15:45.981Z,3.03
2023-03-02T07:18:13.894Z,3.07
2023-03-02T07:20:41.659Z,3.11
2023-03-02T07:23:09.417Z,3.16
2023-03-02T07:25:37.185Z,3.20
2023-03-02T07:28:05.146Z,3.24
2023-03-02T07:30:32.964Z,3.25
2023-03-02T07:33:00.835Z,3.29
2023-03-02T07:35:29.085Z,3.33
2023-03-02T07:37:57.078Z,3.38
2023-03-02T07:40:24.813Z,3.42
2023-03-02T07:42:52.656Z,3.44
2023-03-02T07:45:21.957Z,3.44
2023-03-02T07:47:49.640Z,3.45
2023-03-02T07:50:17.518Z,3.46
2023-03-02T07:52:45.210Z,3.48
2023-03-02T07:55:13.186Z,3.52
2023-03-02T07:57:40.862Z,3.59
2023-03-02T08:00:09.514Z,3.67
2023-03-02T08:02:37.256Z,3.74
2023-03-02T08:05:05.339Z,3.81
2023-03-02T08:07:33.042Z,3.85
2023-03-02T08:10:01.099Z,3.89
2023-03-02T08:12:29.189Z,3.93
2023-03-02T08:14:57.522Z,3.99
2023-03-02T08:17:26.302Z,4.05
2023-03-02T08:19:54.035Z,4.08
2023-03-02T08:22:21.935Z,4.12
2023-03-02T08:24:49.582Z,4.18
2023-03-02T08:27:17.463Z,4.27
2023-03-02T08:29:46.069Z,4.34
2023-03-02T08:32:14.344Z,4.43
2023-03-02T08:34:43.214Z,4.48
2023-03-02T08:37:11.121Z,4.48
2023-03-02T08:39:39.018Z,4.53
2023-03-02T08:42:06.724Z,4.58
2023-03-02T08:44:34.675Z,4.67
2023-03-02T08:47:02.706Z,4.71
2023-03-02T08:49:30.793Z,4.76
2023-03-02T08:51:59.430Z,4.82
2023-03-02T08:54:27.333Z,4.90
2023-03-02T08:56:55.907Z,4.94
2023-03-02T08:59:23.943Z,4.97
2023-03-02T09:01:51.740Z,5.01
2023-03-02T09:04:19.839Z,5.07
2023-03-02T09:06:47.631Z,5.11
2023-03-02T09:09:15.616Z,5.10
2023-03-02T09:11:44.830Z,5.12
2023-03-02T09:14:13.732Z,5.12
2023-03-02T09:16:41.776Z,5.14
2023-03-02T09:19:10.223Z,5.21
2023-03-02T09:21:38.079Z,5.27
2023-03-02T09:24:05.910Z,5.31
2023-03-02T09:26:34.229Z,5.32
2023-03-02T09:29:02.229Z,5.34
2023-03-02T09:31:30.731Z,5.42
2023-03-02T09:33:59.032Z,5.48
2023-03-02T09:36:27.258Z,5.51
2023-03-02T09:38:55.796Z,5.59
2023-03-02T09:41:26.586Z,5.68
2023-03-02T09:44:16.085Z,5.81
2023-03-02T09:46:48.533Z,5.98
2023-03-02T09:49:22.485Z,6.08
2023-03-02T09:51:56.013Z,6.08
2023-03-02T09:54:25.565Z,6.04
2023-03-02T09:56:55.041Z,5.98
2023-03-02T09:59:28.688Z,5.94
2023-03-02T10:02:01.500Z,5.89
2023-03-02T10:04:31.584Z,5.86
2023-03-02T10:07:13.881Z,5.87
2023-03-02T10:09:42.710Z,5.90
2023-03-02T10:12:10.486Z,5.96
2023-03-02T10:14:42.023Z,6.12
2023-03-02T10:17:12.533Z,6.12
2023-03-02T10:19:44.245Z,6.08
2023-03-02T10:22:20.982Z,6.01
2023-03-02T10:24:57.884Z,5.96
2023-03-02T10:27:31.819Z,5.92
2023-03-02T10:30:18.594Z,5.85
2023-03-02T10:32:50.989Z,5.89
2023-03-02T10:35:23.628Z,5.87
2023-03-02T10:37:55.230Z,5.89
2023-03-02T10:40:29.327Z,5.95
2023-03-02T10:42:58.421Z,5.94
2023-03-02T10:45:26.326Z,5.89
2023-03-02T10:48:01.299Z,5.83
2023-03-02T10:50:30.768Z,5.96
2023-03-02T10:53:01.071Z,6.11
2023-03-02T10:55:30.682Z,6.28
2023-03-02T10:58:01.187Z,6.42
2023-03-02T11:00:30.077Z,6.54
2023-03-02T11:02:59.623Z,6.65
2023-03-02T11:05:29.275Z,6.74
2023-03-02T11:08:08.509Z,6.84
2023-03-02T11:10:37.849Z,7.02
2023-03-02T11:13:24.294Z,7.12
2023-03-02T11:15:54.255Z,7.29
2023-03-02T11:18:27.437Z,7.40
2023-03-02T11:20:57.514Z,7.30
2023-03-02T11:23:25.395Z,7.03
2023-03-02T11:25:55.413Z,6.85
2023-03-02T11:28:43.909Z,6.75
2023-03-02T11:31:22.629Z,6.68
2023-03-02T11:34:07.876Z,6.63
2023-03-02T11:36:44.845Z,6.52
2023-03-02T11:39:16.788Z,6.53
2023-03-02T11:41:45.279Z,6.65
2023-03-02T11:44:16.035Z,6.72
2023-03-02T11:46:59.218Z,6.78
2023-03-02T11:49:39.955Z,6.85
2023-03-02T11:52:16.036Z,6.95
2023-03-02T11:54:46.868Z,6.89
2023-03-02T11:57:22.894Z,6.94
2023-03-02T11:59:50.895Z,7.22
2023-03-02T12:02:19.243Z,7.53
2023-03-02T12:04:47.488Z,7.75
2023-03-02T12:07:23.129Z,7.88
2023-03-02T12:10:01.643Z,7.81
2023-03-02T12:12:33.384Z,7.67
2023-03-02T12:15:01.346Z,7.59
2023-03-02T12:17:30.834Z,7.54
2023-03-02T12:20:07.995Z,7.50
2023-03-02T12:22:36.381Z,7.44
2023-03-02T12:25:25.324Z,7.41
2023-03-02T12:27:54.535Z,7.34
2023-03-02T12:30:26.304Z,7.26
2023-03-02T12:33:05.690Z,7.24
2023-03-02T12:35:36.882Z,7.28
2023-03-02T12:38:17.101Z,7.17
2023-03-02T12:40:47.588Z,7.08
2023-03-02T12:43:31.265Z,7.11
2023-03-02T12:46:18.004Z,7.18
2023-03-02T12:48:51.169Z,7.26
2023-03-02T12:51:23.589Z,7.42
2023-03-02T12:54:05.362Z,7.57
2023-03-02T12:56:33.930Z,7.70
2023-03-02T12:59:02.031Z,7.76
2023-03-02T13:01:31.074Z,7.72
2023-03-02T13:03:59.215Z,7.74
2023-03-02T13:06:30.047Z,7.79
2023-03-02T13:08:59.065Z,7.83
2023-03-02T13:11:31.281Z,7.87
2023-03-02T13:13:59.642Z,7.93
2023-03-02T13:16:31.729Z,7.94
2023-03-02T13:19:01.730Z,7.95
2023-03-02T13:21:29.545Z,7.90
2023-03-02T13:23:57.656Z,7.92
2023-03-02T13:26:33.580Z,8.00
2023-03-02T13:29:04.679Z,8.12
2023-03-02T13:31:33.362Z,8.17
2023-03-02T13:34:01.414Z,8.07
2023-03-02T13:36:31.528Z,7.97
2023-03-02T13:39:00.309Z,7.86
2023-03-02T13:41:29.686Z,7.91
2023-03-02T13:43:58.698Z,7.99
2023-03-02T13:46:36.651Z,8.06
2023-03-02T13:49:11.224Z,8.01
2023-03-02T13:51:45.516Z,7.93
2023-03-02T13:54:13.708Z,7.83
2023-03-02T13:56:44.191Z,7.73
2023-03-02T13:59:18.091Z,7.63
2023-03-02T14:01:46.389Z,7.60
2023-03-02T14:04:16.803Z,7.66
2023-03-02T14:06:45.539Z,7.75
2023-03-02T14:09:13.803Z,7.87
2023-03-02T14:11:46.895Z,8.04
2023-03-02T14:14:16.903Z,8.24
2023-03-02T14:16:44.684Z,8.42
2023-03-02T14:19:13.884Z,8.55
2023-03-02T14:21:43.423Z,8.69
2023-03-02T14:24:11.600Z,8.86
2023-03-02T14:26:44.586Z,8.99
2023-03-02T14:29:32.375Z,8.93
2023-03-02T14:32:03.690Z,8.63
2023-03-02T14:34:32.584Z,8.46
2023-03-02T14:37:02.898Z,8.38
2023-03-02T14:39:34.242Z,8.33
2023-03-02T14:42:02.626Z,8.35
2023-03-02T14:44:30.434Z,8.34
2023-03-02T14:46:58.649Z,8.33
2023-03-02T14:49:26.419Z,8.33
2023-03-02T14:52:05.655Z,8.34
2023-03-02T14:54:38.381Z,8.39
2023-03-02T14:57:08.357Z,8.43
2023-03-02T14:59:36.159Z,8.46
2023-03-02T15:02:15.934Z,8.47
2023-03-02T15:04:55.985Z,8.52
2023-03-02T15:07:25.397Z,8.48
2023-03-02T15:09:54.496Z,8.51
2023-03-02T15:12:22.395Z,8.53
2023-03-02T15:14:50.234Z,8.53
2023-03-02T15:17:18.083Z,8.58
2023-03-02T15:19:45.901Z,8.64
2023-03-02T15:22:14.284Z,8.63
2023-03-02T15:24:42.086Z,8.59
2023-03-02T15:27:10.056Z,8.61
2023-03-02T15:29:37.927Z,8.58
2023-03-02T15:32:05.769Z,8.56
2023-03-02T15:34:33.758Z,8.48
2023-03-02T15:37:01.498Z,8.39
2023-03-02T15:39:29.560Z,8.32
2023-03-02T15:41:57.535Z,8.33
2023-03-02T15:44:25.485Z,8.35
2023-03-02T15:46:54.595Z,8.35
2023-03-02T15:49:24.833Z,8.29
2023-03-02T15:51:53.450Z,8.25
2023-03-02T15:54:21.500Z,8.23
2023-03-02T15:56:52.326Z,8.25
2023-03-02T15:59:20.880Z,8.32
2023-03-02T16:01:49.332Z,8.41
2023-03-02T16:04:18.694Z,8.32
2023-03-02T16:06:46.516Z,8.13
2023-03-02T16:09:14.221Z,7.90
2023-03-02T16:11:42.136Z,7.71
2023-03-02T16:14:09.933Z,7.67
2023-03-02T16:16:37.803Z,7.65
2023-03-02T16:19:05.526Z,7.64
2023-03-02T16:21:33.454Z,7.65
2023-03-02T16:24:03.401Z,7.63
2023-03-02T16:26:33.089Z,7.63
2023-03-02T16:29:01.099Z,7.64
2023-03-02T16:31:32.468Z,7.67
2023-03-02T16:34:03.832Z,7.68
2023-03-02T16:36:31.692Z,7.65
2023-03-02T16:38:59.413Z,7.58
2023-03-02T16:41:27.175Z,7.45
2023-03-02T16:43:55.827Z,7.31
2023-03-02T16:46:24.327Z,7.15
2023-03-02T16:48:52.576Z,7.01
2023-03-02T16:51:20.934Z,6.86
2023-03-02T16:53:49.043Z,6.71
2023-03-02T16:56:17.026Z,6.59
2023-03-02T16:58:44.881Z,6.48
2023-03-02T17:01:14.445Z,6.40
2023-03-02T17:03:45.217Z,6.34
2023-03-02T17:06:14.221Z,6.29
2023-03-02T17:08:42.450Z,6.23
2023-03-02T17:11:10.588Z,6.18
2023-03-02T17:13:39.120Z,6.12
2023-03-02T17:16:07.051Z,6.06
2023-03-02T17:18:35.208Z,6.00
2023-03-02T17:21:04.140Z,5.95
2023-03-02T17:23:32.237Z,5.89
2023-03-02T17:26:00.663Z,5.81
2023-03-02T17:28:28.914Z,5.76
2023-03-02T17:30:56.786Z,5.72
2023-03-02T17:33:24.747Z,5.68
2023-03-02T17:35:52.433Z,5.65
2023-03-02T17:38:20.179Z,5.63
2023-03-02T17:40:47.921Z,5.60
2023-03-02T17:43:16.021Z,5.58
2023-03-02T17:45:43.779Z,5.55
2023-03-02T17:48:11.577Z,5.51
2023-03-02T17:50:39.277Z,5.45
2023-03-02T17:53:07.998Z,5.39
2023-03-02T17:55:35.741Z,5.35
2023-03-02T17:58:03.890Z,5.32
2023-03-02T18:00:31.587Z,5.27
2023-03-02T18:02:59.589Z,5.25
2023-03-02T18:05:27.771Z,5.23
2023-03-02T18:07:55.690Z,5.20
2023-03-02T18:10:23.442Z,5.19
2023-03-02T18:12:54.011Z,5.18
2023-03-02T18:15:22.316Z,5.17
2023-03-02T18:17:50.079Z,5.16
2023-03-02T18:20:17.827Z,5.13
2023-03-02T18:22:45.820Z,5.10
2023-03-02T18:25:13.768Z,5.07
2023-03-02T18:27:41.689Z,5.05
2023-03-02T18:30:10.029Z,5.05
2023-03-02T18:32:38.019Z,5.04
2023-03-02T18:35:06.696Z,5.03
2023-03-02T18:37:34.669Z,5.03
2023-03-02T18:40:02.575Z,5.01
2023-03-02T18:42:30.503Z,4.99
2023-03-02T18:44:58.458Z,4.98
2023-03-02T18:47:26.584Z,4.99
2023-03-02T18:49:54.267Z,4.99
2023-03-02T18:52:22.351Z,5.00
2023-03-02T18:54:50.104Z,5.00
2023-03-02T18:57:17.817Z,4.99
2023-03-02T18:59:45.484Z,4.98
2023-03-02T19:02:14.226Z,4.98
2023-03-02T19:04:42.213Z,4.98
2023-03-02T19:07:10.420Z,4.99
2023-03-02T19:09:38.175Z,4.99
2023-03-02T19:12:06.058Z,4.99
2023-03-02T19:14:33.815Z,5.00
2023-03-02T19:17:01.751Z,5.00
2023-03-02T19:19:30.416Z,4.99
2023-03-02T19:21:59.054Z,4.98
2023-03-02T19:24:28.308Z,4.98
2023-03-02T19:26:56.063Z,4.99
2023-03-02T19:29:24.122Z,5.01
2023-03-02T19:31:55.848Z,5.03
2023-03-02T19:34:23.660Z,5.03
2023-03-02T19:36:51.534Z,5.00
2023-03-02T19:39:19.436Z,4.96
2023-03-02T19:41:47.161Z,4.93
2023-03-02T19:44:17.472Z,4.90
2023-03-02T19:46:45.157Z,4.87
2023-03-02T19:49:13.083Z,4.84
2023-03-02T19:51:40.850Z,4.81
2023-03-02T19:54:08.756Z,4.81
2023-03-02T19:56:39.729Z,4.82
2023-03-02T19:59:07.961Z,4.83
2023-03-02T20:01:35.783Z,4.83
2023-03-02T20:04:04.070Z,4.82
2023-03-02T20:06:34.140Z,4.82
2023-03-02T20:09:04.461Z,4.82
2023-03-02T20:11:32.477Z,4.81
2023-03-02T20:14:03.406Z,4.80
2023-03-02T20:16:32.792Z,4.80
2023-03-02T20:19:02.085Z,4.81
2023-03-02T20:21:30.734Z,4.82
2023-03-02T20:23:58.868Z,4.84
2023-03-02T20:26:27.340Z,4.85
2023-03-02T20:28:55.713Z,4.84
2023-03-02T20:31:25.042Z,4.83
2023-03-02T20:33:54.546Z,4.84
2023-03-02T20:36:25.853Z,4.83
2023-03-02T20:38:59.571Z,4.82
2023-03-02T20:41:27.296Z,4.82
2023-03-02T20:43:55.108Z,4.82
2023-03-02T20:46:27.155Z,4.82
2023-03-02T20:48:55.601Z,4.82
2023-03-02T20:51:23.402Z,4.81
2023-03-02T20:53:53.225Z,4.80
2023-03-02T20:56:21.565Z,4.79
2023-03-02T20:58:49.424Z,4.79
2023-03-02T21:01:18.582Z,4.80
2023-03-02T21:03:47.046Z,4.81
2023-03-02T21:06:15.606Z,4.81
2023-03-02T21:08:44.204Z,4.81
2023-03-02T21:11:15.923Z,4.81
2023-03-02T21:13:47.557Z,4.79
2023-03-02T21:16:18.657Z,4.79
2023-03-02T21:18:46.551Z,4.79
2023-03-02T21:21:14.342Z,4.79
2023-03-02T21:23:42.228Z,4.79
2023-03-02T21:26:11.163Z,4.77
2023-03-02T21:28:39.180Z,4.75
2023-03-02T21:31:07.480Z,4.74
2023-03-02T21:33:35.451Z,4.74
2023-03-02T21:36:03.413Z,4.74
2023-03-02T21:38:32.611Z,4.75
2023-03-02T21:41:00.331Z,4.77
2023-03-02T21:43:28.113Z,4.77
2023-03-02T21:45:55.824Z,4.75
2023-03-02T21:48:23.724Z,4.74
2023-03-02T21:50:51.649Z,4.73
2023-03-02T21:53:19.729Z,4.73
2023-03-02T21:55:47.954Z,4.72
2023-03-02T21:58:17.213Z,4.71
2023-03-02T22:00:45.707Z,4.71
2023-03-02T22:03:15.019Z,4.72
2023-03-02T22:05:43.166Z,4.71
2023-03-02T22:08:16.935Z,4.68
2023-03-02T22:10:45.923Z,4.65
2023-03-02T22:13:24.405Z,4.65
2023-03-02T22:16:03.050Z,4.65
2023-03-02T22:18:31.371Z,4.65
2023-03-02T22:20:59.339Z,4.65
2023-03-02T22:23:27.869Z,4.65
2023-03-02T22:26:01.421Z,4.63
2023-03-02T22:28:29.487Z,4.62
2023-03-02T22:30:58.701Z,4.61
2023-03-02T22:33:28.142Z,4.61
2023-03-02T22:36:04.965Z,4.60
2023-03-02T22:38:33.056Z,4.62
2023-03-02T22:41:00.801Z,4.62
2023-03-02T22:43:29.647Z,4.62
2023-03-02T22:46:17.573Z,4.61
2023-03-02T22:48:49.882Z,4.60
2023-03-02T22:51:19.172Z,4.59
2023-03-02T22:53:51.389Z,4.59
2023-03-02T22:56:25.638Z,4.59
2023-03-02T22:58:53.735Z,4.58
2023-03-02T23:01:29.648Z,4.59
2023-03-02T23:04:05.774Z,4.57
2023-03-02T23:06:38.318Z,4.56
2023-03-02T23:09:06.732Z,4.55
2023-03-02T23:11:37.637Z,4.54
2023-03-02T23:14:23.220Z,4.55
2023-03-02T23:16:56.917Z,4.55
2023-03-02T23:19:26.619Z,4.54
2023-03-02T23:21:54.780Z,4.54
2023-03-02T23:24:22.692Z,4.53
2023-03-02T23:26:51.521Z,4.53
2023-03-02T23:29:20.008Z,4.53
2023-03-02T23:31:49.636Z,4.52
2023-03-02T23:34:18.054Z,4.53
2023-03-02T23:36:45.838Z,4.54
2023-03-02T23:39:18.078Z,4.52
2023-03-02T23:41:46.467Z,4.52
2023-03-02T23:44:14.429Z,4.52
2023-03-02T23:46:46.083Z,4.50
2023-03-02T23:49:14.201Z,4.50
2023-03-02T23:51:42.378Z,4.50
2023-03-02T23:54:10.723Z,4.50
2023-03-02T23:56:38.945Z,4.52
2023-03-02T23:59:09.356Z,4.52
